F/V Lanesera — FOSC — position and weather

sailwx.info

Track history (hours):
 
Tides and Currents Weather Stations Pressure Air Temp Water Temp Dewpoint Dewpoint Depression Visibility Wind Speed Wind Dir Waves Ship Positions

F/V Lanesera

Last reported at 2017-Sep-21 02:40 UTC. Time now 2017-Sep-23 03:34 UTC.
Position S 22°23' E 166°41'.

Length 20 m; draft 3 m.

Type: Fishing. MMSI: 540004100.

Date/timePositionNaut miles runAvg speedWind from/ knotsBaromVisibWave heightAir tempDewpointWater temp
2017-Sep-21 02:40S 22°23' E 166°41'1 8.5
2017-Sep-21 02:30S 22°23' E 166°39'4 8.3
2017-Sep-21 02:00S 22°22' E 166°35'4 8.5
2017-Sep-21 01:30S 22°21' E 166°30'4 8.5
2017-Sep-21 01:00S 22°19' E 166°26'4 8.4
2017-Sep-21 00:30S 22°16' E 166°23'2 3.8
2017-Sep-21 00:00S 22°16' E 166°25'0 0.8
2017-Sep-20 23:31S 22°16' E 166°25'0 0.0
2017-Sep-19 03:36S 22°16' E 166°25'0 0.1
2017-Sep-19 03:30S 22°16' E 166°25'0 0.0
2017-Sep-19 03:00S 22°16' E 166°25'0 0.0
2017-Sep-19 02:30S 22°16' E 166°25'0 0.0
2017-Sep-19 02:01S 22°16' E 166°25'0 0.0
2017-Sep-19 01:30S 22°16' E 166°25'0 0.0
2017-Sep-19 01:00S 22°16' E 166°25'0 0.0
2017-Sep-19 00:31S 22°16' E 166°25'0 0.0
2017-Sep-19 00:01S 22°16' E 166°25'0 0.0
2017-Sep-18 23:30S 22°16' E 166°25'0 0.0
2017-Sep-18 23:00S 22°16' E 166°25'0 0.0
2017-Sep-18 22:30S 22°16' E 166°25'0 0.0
2017-Sep-18 22:01S 22°16' E 166°25'0 0.0
2017-Sep-18 21:30S 22°16' E 166°25'0 0.0
2017-Sep-17 01:29S 22°16' E 166°25'3 6.5
2017-Sep-17 01:00S 22°15' E 166°22'4 8.7
2017-Sep-17 00:30S 22°14' E 166°18'4 8.6
2017-Sep-17 00:00S 22°12' E 166°13'5 8.8
2017-Sep-16 23:29S 22°11' E 166°09'  
Track history (hours):
 
Tides and Currents Weather Stations Pressure Air Temp Water Temp Dewpoint Dewpoint Depression Visibility Wind Speed Wind Dir Waves Ship Positions

F/V Lanesera

Last reported at 2017-Sep-21 02:40 UTC. Time now 2017-Sep-23 03:34 UTC.
Position S 22°23' E 166°41'.

Length 20 m; draft 3 m.

Type: Fishing. MMSI: 540004100.

Date/timePositionNaut miles runAvg speedWind from/ knotsBaromVisibWave heightAir tempDewpointWater temp
2017-Sep-21 02:40S 22°23' E 166°41'1 8.5
2017-Sep-21 02:30S 22°23' E 166°39'4 8.3
2017-Sep-21 02:00S 22°22' E 166°35'4 8.5
2017-Sep-21 01:30S 22°21' E 166°30'4 8.5
2017-Sep-21 01:00S 22°19' E 166°26'4 8.4
2017-Sep-21 00:30S 22°16' E 166°23'2 3.8
2017-Sep-21 00:00S 22°16' E 166°25'0 0.8
2017-Sep-20 23:31S 22°16' E 166°25'0 0.0
2017-Sep-19 03:36S 22°16' E 166°25'0 0.1
2017-Sep-19 03:30S 22°16' E 166°25'0 0.0
2017-Sep-19 03:00S 22°16' E 166°25'0 0.0
2017-Sep-19 02:30S 22°16' E 166°25'0 0.0
2017-Sep-19 02:01S 22°16' E 166°25'0 0.0
2017-Sep-19 01:30S 22°16' E 166°25'0 0.0
2017-Sep-19 01:00S 22°16' E 166°25'0 0.0
2017-Sep-19 00:31S 22°16' E 166°25'0 0.0
2017-Sep-19 00:01S 22°16' E 166°25'0 0.0
2017-Sep-18 23:30S 22°16' E 166°25'0 0.0
2017-Sep-18 23:00S 22°16' E 166°25'0 0.0
2017-Sep-18 22:30S 22°16' E 166°25'0 0.0
2017-Sep-18 22:01S 22°16' E 166°25'0 0.0
2017-Sep-18 21:30S 22°16' E 166°25'0 0.0
2017-Sep-17 01:29S 22°16' E 166°25'3 6.5
2017-Sep-17 01:00S 22°15' E 166°22'4 8.7
2017-Sep-17 00:30S 22°14' E 166°18'4 8.6
2017-Sep-17 00:00S 22°12' E 166°13'5 8.8
2017-Sep-16 23:29S 22°11' E 166°09'  

Dump ship's entire track history